Time;durP1;ratioP1;P1;durP2;ratioP2;P2;SDS_P1;SDS_P2;PMS_P1;PMS_P2;Temp;Humidity;BMP_temperature;BMP_pressure;BME280_temperature;BME280_humidity;BME280_pressure;Samples;Min_cycle;Max_cycle;Signal;HPM_P1;HPM_P2
2023/10/02 00:01:24;;;;;;;;;48.33;36.67;;;;;21.20;63.83;101601.31;5114153;27;45326;-67
2023/10/02 00:06:37;;;;;;;;;59.33;43.67;;;;;21.14;64.44;101628.97;5109238;27;45653;-69
2023/10/02 00:09:04;;;;;;;;;57.67;44.00;;;;;21.09;64.28;101626.44;5109359;27;45549;-69
2023/10/02 00:11:37;;;;;;;;;57.67;43.33;;;;;21.08;64.92;101622.03;5106437;27;45512;-69
2023/10/02 00:14:23;;;;;;;;;54.33;42.33;;;;;21.11;64.42;101619.28;5107030;27;45949;-69
2023/10/02 00:17:00;;;;;;;;;55.33;41.33;;;;;21.09;64.36;101623.78;5108140;27;45683;-69
2023/10/02 00:19:32;;;;;;;;;54.00;40.67;;;;;21.10;64.32;101620.22;5105852;27;45697;-69
2023/10/02 00:22:05;;;;;;;;;51.33;38.33;;;;;21.11;64.47;101624.59;5098969;27;45553;-69
2023/10/02 00:24:39;;;;;;;;;47.33;36.00;;;;;21.09;64.55;101622.91;5115002;27;46571;-68
2023/10/02 00:27:16;;;;;;;;;47.67;38.33;;;;;21.11;64.44;101637.94;5104670;27;45770;-68
2023/10/02 00:30:00;;;;;;;;;47.00;35.67;;;;;21.11;64.59;101637.06;5114228;27;45478;-69
2023/10/02 00:32:31;;;;;;;;;51.00;38.33;;;;;20.99;65.05;101629.41;5111099;27;45366;-69
2023/10/02 00:35:06;;;;;;;;;45.00;32.33;;;;;20.85;65.74;101635.97;5107161;27;45655;-69
2023/10/02 00:37:44;;;;;;;;;45.00;35.00;;;;;20.76;65.78;101630.88;5108254;27;45492;-68
2023/10/02 00:40:21;;;;;;;;;47.33;34.00;;;;;20.80;65.93;101632.56;5112033;27;45446;-69
2023/10/02 00:45:58;;;;;;;;;42.00;33.67;;;;;20.62;66.12;101612.63;5111305;27;45598;-69
2023/10/02 00:48:25;;;;;;;;;46.00;34.67;;;;;20.67;66.63;101623.16;5105886;27;45483;-69
2023/10/02 00:50:54;;;;;;;;;42.00;34.33;;;;;20.56;66.35;101615.44;5115853;27;45469;-69
2023/10/02 00:53:42;;;;;;;;;37.67;32.00;;;;;20.65;66.46;101627.66;5117152;27;45418;-68
2023/10/02 00:56:24;;;;;;;;;38.00;33.33;;;;;20.61;66.63;101633.97;5111078;27;45913;-68
2023/10/02 00:59:14;;;;;;;;;32.67;24.00;;;;;20.59;66.35;101628.66;5109031;27;45615;-68
2023/10/02 01:01:47;;;;;;;;;36.67;27.67;;;;;20.54;66.37;101619.88;5119963;27;45546;-68
2023/10/02 01:04:35;;;;;;;;;28.33;24.67;;;;;20.41;66.73;101616.69;5120638;27;45753;-68
2023/10/02 01:07:11;;;;;;;;;27.33;21.33;;;;;20.49;66.48;101613.81;5119605;27;45658;-68
2023/10/02 01:10:29;;;;;;;;;31.67;26.33;;;;;20.48;66.43;101612.09;5120355;27;45490;-70
2023/10/02 01:12:43;;;;;;;;;28.67;21.67;;;;;20.63;66.02;101621.50;5110189;27;45457;-68
2023/10/02 01:15:12;;;;;;;;;33.67;25.33;;;;;20.60;66.04;101622.44;5115123;27;45615;-70
2023/10/02 01:17:52;;;;;;;;;39.00;27.33;;;;;20.39;66.39;101602.53;5107641;27;47044;-69
2023/10/02 01:20:45;;;;;;;;;35.00;24.00;;;;;20.28;66.89;101608.09;5115379;27;45397;-69
2023/10/02 01:23:15;;;;;;;;;41.67;28.67;;;;;20.21;66.86;101611.81;5124106;27;45525;-69
2023/10/02 01:25:46;;;;;;;;;35.33;28.67;;;;;20.18;67.34;101617.22;5124171;27;45498;-69
2023/10/02 01:28:25;;;;;;;;;30.33;23.33;;;;;20.21;67.41;101618.94;5118477;27;45485;-70
2023/10/02 01:30:55;;;;;;;;;31.33;24.33;;;;;20.16;67.30;101605.75;5118338;27;45466;-69
2023/10/02 01:33:32;;;;;;;;;31.67;20.67;;;;;20.17;67.40;101618.16;5114103;27;45458;-70
2023/10/02 01:36:02;;;;;;;;;41.33;22.33;;;;;20.18;67.45;101617.22;5102562;27;45609;-69
2023/10/02 01:38:35;;;;;;;;;28.67;22.00;;;;;20.12;67.16;101598.75;5105354;27;46386;-69
2023/10/02 01:41:04;;;;;;;;;27.33;24.33;;;;;20.19;67.11;101610.97;5105854;27;45586;-68
2023/10/02 01:43:49;;;;;;;;;24.33;23.33;;;;;20.11;67.57;101607.66;5119916;27;45440;-68
2023/10/02 01:46:22;;;;;;;;;28.00;20.00;;;;;20.04;67.63;101604.25;5111899;27;45685;-70
2023/10/02 01:48:54;;;;;;;;;25.33;23.33;;;;;20.02;68.09;101605.19;5101365;27;45715;-69
2023/10/02 01:51:27;;;;;;;;;27.67;24.00;;;;;19.79;68.20;101574.72;5118987;27;45558;-69
2023/10/02 01:54:15;;;;;;;;;28.67;23.33;;;;;19.82;68.39;101590.59;5120031;27;45419;-69
2023/10/02 01:56:47;;;;;;;;;26.00;19.33;;;;;19.86;68.46;101589.63;5124423;27;45720;-68
2023/10/02 01:59:25;;;;;;;;;22.33;19.67;;;;;19.85;68.33;101579.00;5127223;27;45650;-68
2023/10/02 02:02:12;;;;;;;;;26.33;20.33;;;;;19.88;68.33;101586.91;5120426;27;45616;-68
2023/10/02 02:04:45;;;;;;;;;25.67;22.33;;;;;19.81;68.49;101583.53;5105310;27;45573;-69
2023/10/02 02:07:20;;;;;;;;;26.33;23.67;;;;;19.82;68.21;101582.63;5117273;27;45535;-69
2023/10/02 02:09:46;;;;;;;;;26.00;19.33;;;;;19.90;68.12;101588.63;5116139;27;46757;-70
2023/10/02 02:12:15;;;;;;;;;27.67;15.67;;;;;19.88;68.32;101582.50;5107058;27;45503;-69
2023/10/02 02:14:57;;;;;;;;;25.67;22.33;;;;;19.81;68.25;101570.25;5114907;27;45625;-68
2023/10/02 02:17:26;;;;;;;;;24.33;19.33;;;;;19.92;67.94;101597.44;5119591;27;45353;-69
2023/10/02 02:20:10;;;;;;;;;25.67;20.33;;;;;19.95;68.00;101591.19;5117983;27;45539;-69
2023/10/02 02:22:37;;;;;;;;;20.67;19.00;;;;;19.84;67.95;101578.16;5119361;27;46973;-69
2023/10/02 02:25:12;;;;;;;;;25.33;18.00;;;;;19.89;68.06;101591.34;5118725;27;45479;-69
2023/10/02 02:27:46;;;;;;;;;21.00;18.00;;;;;19.89;68.03;101591.34;5115094;27;45522;-69
2023/10/02 02:30:22;;;;;;;;;20.67;17.00;;;;;19.83;67.72;101575.50;5118248;27;46183;-68
2023/10/02 02:32:55;;;;;;;;;26.67;16.33;;;;;19.89;67.82;101578.91;5118515;27;45609;-69
2023/10/02 02:35:22;;;;;;;;;21.67;18.00;;;;;19.90;67.31;101577.13;5118176;27;45567;-69
2023/10/02 02:37:56;;;;;;;;;22.00;15.33;;;;;19.90;68.07;101588.63;5115684;27;45684;-69
2023/10/02 02:40:23;;;;;;;;;26.00;19.33;;;;;19.76;68.11;101563.28;5116768;27;45510;-69
2023/10/02 02:42:54;;;;;;;;;21.33;18.00;;;;;19.86;68.09;101580.75;5117374;27;45536;-68
2023/10/02 02:45:31;;;;;;;;;27.33;21.67;;;;;19.83;67.54;101570.19;5118362;27;45434;-68
2023/10/02 02:48:16;;;;;;;;;27.00;21.33;;;;;19.88;67.81;101587.81;5115255;27;45744;-68
2023/10/02 02:50:44;;;;;;;;;27.67;21.67;;;;;19.83;68.15;101583.50;5116321;27;46821;-68
2023/10/02 02:53:30;;;;;;;;;27.00;18.67;;;;;19.76;67.95;101579.22;5118179;27;45513;-69
2023/10/02 02:56:23;;;;;;;;;15.67;15.67;;;;;19.57;68.83;101570.75;5118019;27;45449;-70
2023/10/02 02:58:58;;;;;;;;;28.33;22.33;;;;;19.48;69.39;101577.13;5118158;27;45478;-70
2023/10/02 03:01:30;;;;;;;;;27.00;20.33;;;;;19.44;69.35;101581.66;5116677;27;45722;-69
2023/10/02 03:04:13;;;;;;;;;19.67;16.67;;;;;19.33;69.84;101566.84;5105820;27;45377;-69
2023/10/02 03:06:48;;;;;;;;;30.33;23.33;;;;;19.16;69.87;101549.47;5109251;27;45502;-69
2023/10/02 03:09:23;;;;;;;;;25.67;18.67;;;;;19.22;70.08;101564.41;5100669;27;45467;-69
2023/10/02 03:11:50;;;;;;;;;26.67;21.33;;;;;19.21;69.99;101573.28;5112549;27;45593;-70
2023/10/02 03:14:29;;;;;;;;;21.67;19.00;;;;;19.17;70.15;101563.63;5118152;27;45338;-69
2023/10/02 03:17:22;;;;;;;;;28.67;17.00;;;;;19.21;69.66;101567.97;5116350;27;45606;-69
2023/10/02 03:19:45;;;;;;;;;32.67;22.33;;;;;19.27;69.53;101566.06;5117399;27;45530;-69
2023/10/02 03:22:11;;;;;;;;;21.33;14.33;;;;;19.17;69.40;101555.66;5116614;27;45511;-69
2023/10/02 03:25:24;;;;;;;;;24.33;17.67;;;;;19.23;69.54;101572.34;5117622;27;45345;-69
2023/10/02 03:27:48;;;;;;;;;25.67;18.00;;;;;19.07;69.33;101536.41;5117562;27;45757;-69
2023/10/02 03:30:47;;;;;;;;;30.67;16.33;;;;;19.20;69.58;101560.94;5109499;27;45529;-69
2023/10/02 03:33:17;;;;;;;;;21.67;18.67;;;;;19.16;69.92;101567.19;5105019;27;46882;-70
2023/10/02 03:36:08;;;;;;;;;24.00;20.33;;;;;19.04;70.42;101569.19;5114281;27;45583;-69
2023/10/02 03:38:41;;;;;;;;;24.00;19.67;;;;;18.89;70.81;101568.59;5103084;27;45533;-71
2023/10/02 03:41:11;;;;;;;;;31.00;21.33;;;;;18.78;71.53;101555.56;5117833;27;45604;-69
2023/10/02 03:44:03;;;;;;;;;23.67;20.67;;;;;18.68;71.09;101535.38;5116995;27;45470;-70
2023/10/02 03:46:56;;;;;;;;;26.00;21.33;;;;;18.70;71.23;101546.81;5109493;27;45770;-70
2023/10/02 03:49:27;;;;;;;;;33.00;21.33;;;;;18.38;70.82;101469.59;5114156;27;45587;-70
2023/10/02 03:51:57;;;;;;;;;26.67;20.33;;;;;18.63;70.98;101509.81;5111931;27;45515;-70
2023/10/02 03:54:29;;;;;;;;;22.67;19.33;;;;;18.39;71.24;101481.09;5115160;27;45610;-70
2023/10/02 03:56:55;;;;;;;;;25.67;22.00;;;;;18.87;70.93;101544.78;5116470;27;45368;-70
2023/10/02 03:59:31;;;;;;;;;22.00;17.67;;;;;18.85;70.70;101539.47;5117798;27;45767;-69
2023/10/02 04:02:36;;;;;;;;;21.00;17.00;;;;;18.96;70.65;101552.56;5117541;27;45674;-69
2023/10/02 04:05:04;;;;;;;;;20.67;18.33;;;;;18.71;70.11;101503.47;5115911;27;45863;-69
2023/10/02 04:07:35;;;;;;;;;19.33;15.67;;;;;19.07;70.27;101549.66;5116349;27;45459;-70
2023/10/02 04:10:51;;;;;;;;;21.33;19.00;;;;;19.02;69.92;101547.09;5116436;27;45533;-70
2023/10/02 04:13:14;;;;;;;;;25.67;18.00;;;;;19.10;69.68;101546.06;5117160;27;45524;-70
2023/10/02 04:15:43;;;;;;;;;26.67;17.67;;;;;19.09;69.77;101549.66;5107899;27;45560;-70
2023/10/02 04:18:45;;;;;;;;;24.67;19.00;;;;;18.95;69.85;101532.22;5132699;27;45703;-69
2023/10/02 04:21:14;;;;;;;;;20.67;17.67;;;;;18.94;69.71;101541.09;5114987;27;45693;-68
2023/10/02 04:24:09;;;;;;;;;23.00;18.67;;;;;18.77;70.01;101506.94;5113750;27;45418;-70
2023/10/02 04:26:36;;;;;;;;;24.33;17.67;;;;;18.88;70.05;101541.19;5101148;27;45615;-69
2023/10/02 04:32:04;;;;;;;;;29.00;20.67;;;;;18.62;70.36;101523.09;5103908;27;45313;-70
2023/10/02 04:34:46;;;;;;;;;32.00;22.00;;;;;18.44;70.71;101497.81;5115833;27;45551;-69
2023/10/02 04:37:31;;;;;;;;;31.33;22.33;;;;;18.55;70.77;101519.66;5110544;27;46602;-69
2023/10/02 04:40:14;;;;;;;;;22.33;18.00;;;;;18.57;70.84;101533.78;5109447;27;45615;-69
2023/10/02 04:45:57;;;;;;;;;31.33;21.00;;;;;18.55;70.75;101543.53;5092615;27;45581;-69
2023/10/02 04:48:27;;;;;;;;;21.67;17.00;;;;;18.40;70.39;101507.56;5093467;27;45411;-69
2023/10/02 04:51:03;;;;;;;;;25.33;22.33;;;;;18.31;70.73;101489.16;5096144;27;45487;-69
2023/10/02 04:53:29;;;;;;;;;30.00;20.33;;;;;18.58;70.69;101550.56;5114656;27;45537;-70
2023/10/02 04:58:57;;;;;;;;;29.67;20.67;;;;;18.43;70.96;101543.78;5116427;27;45947;-70
2023/10/02 05:01:41;;;;;;;;;24.00;18.33;;;;;18.36;71.15;101543.00;5116954;27;45420;-70
2023/10/02 05:04:18;;;;;;;;;26.33;19.67;;;;;17.93;71.06;101464.22;5115822;27;45376;-69
2023/10/02 05:06:57;;;;;;;;;31.67;21.33;;;;;18.16;71.30;101511.53;5115479;27;45466;-71
2023/10/02 05:09:38;;;;;;;;;31.00;22.67;;;;;18.22;71.37;101540.63;5116536;27;46205;-70
2023/10/02 05:12:06;;;;;;;;;26.33;21.67;;;;;18.02;71.85;101527.66;5132159;27;45391;-70
2023/10/02 05:14:51;;;;;;;;;29.67;20.00;;;;;18.11;72.15;101550.50;5117631;27;45491;-70
2023/10/02 05:20:15;;;;;;;;;27.00;19.67;;;;;17.98;71.82;101522.44;5112493;27;45325;-70
2023/10/02 05:22:43;;;;;;;;;22.33;20.00;;;;;18.04;71.85;101526.78;5117183;27;45499;-69
2023/10/02 05:25:18;;;;;;;;;18.00;11.00;;;;;17.94;71.60;101518.13;5117244;27;45500;-71
2023/10/02 05:27:52;;;;;;;;;26.67;22.67;;;;;17.91;71.47;101512.84;5116811;27;45543;-70
2023/10/02 05:30:29;;;;;;;;;29.00;22.33;;;;;17.94;71.71;101523.41;5116434;27;46592;-69
2023/10/02 05:32:58;;;;;;;;;35.00;20.00;;;;;17.74;71.91;101513.94;5115691;27;45379;-69
2023/10/02 05:35:57;;;;;;;;;28.00;19.00;;;;;17.87;71.89;101537.63;5114427;27;45686;-70
2023/10/02 05:38:28;;;;;;;;;26.67;18.00;;;;;17.83;71.37;101512.97;5105369;27;46047;-69
2023/10/02 05:40:58;;;;;;;;;27.00;22.00;;;;;18.04;71.43;101546.22;5118661;27;46530;-69
2023/10/02 05:43:55;;;;;;;;;27.00;20.67;;;;;18.02;71.33;101542.69;5119341;27;46154;-72
2023/10/02 05:46:21;;;;;;;;;23.00;21.00;;;;;18.07;71.27;101542.63;5110126;27;45325;-71
2023/10/02 05:49:00;;;;;;;;;27.67;21.00;;;;;17.72;70.97;101497.19;5119364;27;45482;-71
2023/10/02 05:51:45;;;;;;;;;25.00;20.00;;;;;17.54;71.25;101478.94;5117143;27;46167;-71
2023/10/02 05:54:19;;;;;;;;;30.67;22.67;;;;;17.59;71.86;101500.94;5119300;27;45501;-69
2023/10/02 05:56:46;;;;;;;;;25.67;17.67;;;;;17.87;71.86;101548.22;5118272;27;45666;-70
2023/10/02 05:59:27;;;;;;;;;36.33;23.00;;;;;17.85;71.96;101545.63;5119213;27;45461;-70
2023/10/02 06:02:14;;;;;;;;;29.00;20.33;;;;;17.76;71.84;101536.00;5118660;27;45589;-71
2023/10/02 06:04:52;;;;;;;;;23.00;22.00;;;;;17.77;71.75;101535.13;5118245;27;45472;-71
2023/10/02 06:10:25;;;;;;;;;26.00;21.00;;;;;17.58;71.94;101508.03;5118925;27;45476;-74
2023/10/02 06:13:06;;;;;;;;;31.00;20.33;;;;;17.76;71.82;101530.69;5117311;27;47411;-72
2023/10/02 06:15:44;;;;;;;;;28.00;22.33;;;;;17.87;71.94;101524.38;5113012;27;45464;-72
2023/10/02 06:18:38;;;;;;;;;25.00;22.67;;;;;17.88;71.04;101512.91;5118773;27;45366;-73
2023/10/02 06:21:02;;;;;;;;;25.67;19.67;;;;;17.78;70.91;101501.53;5118635;27;45645;-78
2023/10/02 06:23:38;;;;;;;;;33.33;23.67;;;;;17.95;70.86;101541.06;5118365;27;46143;-72
2023/10/02 06:26:13;;;;;;;;;25.00;19.00;;;;;17.56;70.96;101487.75;5110513;27;45576;-71
2023/10/02 06:28:41;;;;;;;;;25.33;20.33;;;;;17.42;70.66;101456.19;5108510;27;46740;-73
2023/10/02 06:31:30;;;;;;;;;25.00;23.67;;;;;17.96;71.28;101550.75;5116463;27;45563;-73
2023/10/02 06:33:57;;;;;;;;;27.00;23.67;;;;;17.97;71.29;101556.03;5117356;27;45468;-72
2023/10/02 06:36:30;;;;;;;;;38.33;25.33;;;;;17.84;71.03;101533.25;5109153;27;45678;-71
2023/10/02 06:38:58;;;;;;;;;30.33;24.67;;;;;18.12;70.43;101552.25;5104624;27;45372;-76
2023/10/02 06:41:36;;;;;;;;;26.00;21.67;;;;;18.28;70.52;101555.53;5106489;27;45597;-74
2023/10/02 06:44:14;;;;;;;;;38.33;24.33;;;;;18.38;69.98;101561.56;5101338;27;45550;-70
2023/10/02 06:49:20;;;;;;;;;29.67;24.33;;;;;18.33;69.38;101527.16;5321172;22;46980;-74
2023/10/02 06:51:54;;;;;;;;;30.33;25.00;;;;;18.51;68.91;101555.13;5021721;28;45490;-75
2023/10/02 06:54:21;;;;;;;;;30.00;20.33;;;;;18.59;68.64;101552.34;5012723;28;45370;-68
2023/10/02 06:56:48;;;;;;;;;21.33;17.67;;;;;18.59;68.49;101544.38;5007557;28;45548;-70
2023/10/02 06:59:16;;;;;;;;;25.33;22.00;;;;;18.60;68.00;101538.16;5014422;28;45652;-74
2023/10/02 07:02:04;;;;;;;;;33.33;25.67;;;;;18.77;67.65;101551.13;5001174;28;45995;-71
2023/10/02 07:04:30;;;;;;;;;32.00;23.00;;;;;18.73;67.30;101537.03;5014427;28;45984;-71
2023/10/02 07:07:03;;;;;;;;;31.67;24.00;;;;;18.90;67.07;101552.66;5012717;28;45773;-73
2023/10/02 07:09:39;;;;;;;;;24.00;23.67;;;;;18.99;66.95;101551.63;5013485;28;45439;-72
2023/10/02 07:12:09;;;;;;;;;35.67;27.00;;;;;19.11;66.08;101551.38;5013715;28;45417;-73
2023/10/02 07:15:13;;;;;;;;;32.67;26.00;;;;;18.98;65.95;101529.50;5012325;28;45557;-74
2023/10/02 07:17:50;;;;;;;;;26.00;19.67;;;;;19.17;65.73;101558.31;5013455;28;45488;-70
2023/10/02 07:20:20;;;;;;;;;30.00;22.33;;;;;19.12;65.71;101539.81;5021275;28;45606;-73
2023/10/02 07:22:49;;;;;;;;;34.00;23.67;;;;;19.01;65.58;101516.16;5017958;28;45507;-72
2023/10/02 07:25:24;;;;;;;;;25.33;19.33;;;;;19.17;64.93;101532.66;5017729;28;45667;-74
2023/10/02 07:27:57;;;;;;;;;30.33;25.33;;;;;19.25;64.92;101537.81;5012561;28;46018;-73
2023/10/02 07:30:26;;;;;;;;;34.00;24.67;;;;;19.42;64.95;101562.22;5011502;28;45469;-71
2023/10/02 07:33:03;;;;;;;;;36.00;27.00;;;;;19.25;64.55;101530.72;5013146;28;45433;-72
2023/10/02 07:35:30;;;;;;;;;36.33;25.67;;;;;19.17;64.91;101532.66;5014194;28;46257;-74
2023/10/02 07:37:59;;;;;;;;;26.00;20.67;;;;;19.34;65.00;101544.69;5011292;28;45406;-76
2023/10/02 07:43:18;;;;;;;;;29.00;23.67;;;;;19.60;64.55;101552.06;4996235;28;45490;-74
2023/10/02 07:46:01;;;;;;;;;35.33;25.00;;;;;19.57;64.46;101557.47;5009617;28;45950;-73
2023/10/02 07:48:33;;;;;;;;;29.33;25.33;;;;;19.34;64.30;101518.13;5012501;28;45489;-75
2023/10/02 07:51:01;;;;;;;;;37.33;25.67;;;;;19.64;64.13;101540.47;5033441;28;45498;-73
2023/10/02 07:53:40;;;;;;;;;31.67;23.67;;;;;19.63;64.07;101550.25;5032123;28;45410;-73
2023/10/02 07:56:19;;;;;;;;;34.67;26.67;;;;;19.66;63.68;101541.31;5027002;28;46706;-72
2023/10/02 07:58:54;;;;;;;;;28.33;26.00;;;;;19.56;63.24;101500.81;5014279;28;46111;-72
2023/10/02 08:01:27;;;;;;;;;31.33;26.33;;;;;19.74;63.36;101522.56;5018878;28;45497;-72
2023/10/02 08:03:55;;;;;;;;;32.00;26.33;;;;;20.09;62.52;101553.63;5014336;28;45342;-74
2023/10/02 08:06:37;;;;;;;;;30.67;26.67;;;;;20.11;62.37;101557.13;5013584;28;47130;-75
2023/10/02 08:11:56;;;;;;;;;35.67;25.67;;;;;20.22;61.49;101554.22;5013866;28;45724;-75
2023/10/02 08:14:42;;;;;;;;;33.00;23.33;;;;;20.28;61.92;101546.91;5014121;28;45512;-73
2023/10/02 08:17:27;;;;;;;;;29.00;22.67;;;;;20.40;61.34;101536.88;5013529;28;45282;-75
2023/10/02 08:19:59;;;;;;;;;37.33;26.33;;;;;20.61;60.86;101548.78;5012462;28;45561;-73
2023/10/02 08:22:36;;;;;;;;;30.00;24.33;;;;;20.48;60.74;101513.63;5014575;28;45618;-75
2023/10/02 08:25:13;;;;;;;;;23.33;19.33;;;;;20.75;60.55;101558.13;5014615;28;45536;-75
2023/10/02 08:27:57;;;;;;;;;35.00;27.00;;;;;20.74;59.89;101540.44;5013804;28;45457;-74
2023/10/02 08:30:31;;;;;;;;;34.67;25.33;;;;;20.80;59.98;101541.19;5014002;28;45469;-76
2023/10/02 08:33:18;;;;;;;;;32.00;22.67;;;;;20.86;60.09;101552.53;5013372;28;45631;-74
2023/10/02 08:35:50;;;;;;;;;31.00;22.67;;;;;20.89;59.41;101531.13;5013252;28;45983;-76
2023/10/02 08:38:26;;;;;;;;;40.00;25.33;;;;;20.90;59.05;101527.53;5023836;28;45386;-75
2023/10/02 08:41:08;;;;;;;;;33.67;26.00;;;;;20.81;59.46;101501.22;5013390;28;46612;-77
2023/10/02 08:43:53;;;;;;;;;27.00;23.33;;;;;21.24;58.67;101555.88;5013770;28;45363;-72
2023/10/02 08:46:27;;;;;;;;;33.33;26.33;;;;;21.03;58.24;101504.13;5009317;28;45510;-77
2023/10/02 08:49:00;;;;;;;;;29.00;25.67;;;;;21.41;58.26;101541.22;5012817;28;46381;-76
2023/10/02 08:51:48;;;;;;;;;32.67;25.67;;;;;21.38;58.17;101516.38;5011318;28;45649;-70
2023/10/02 08:54:17;;;;;;;;;27.33;22.33;;;;;21.56;57.66;101538.06;5016602;28;45407;-75
2023/10/02 08:56:44;;;;;;;;;30.67;27.33;;;;;21.67;57.64;101549.28;5013125;28;45684;-73
2023/10/02 08:59:38;;;;;;;;;36.00;28.00;;;;;21.27;57.31;101494.50;5012240;28;46286;-76
2023/10/02 09:02:16;;;;;;;;;24.00;20.00;;;;;21.50;57.64;101522.28;5012132;28;45568;-74
2023/10/02 09:04:53;;;;;;;;;31.33;24.00;;;;;21.95;57.52;101543.09;5010392;28;45372;-76
2023/10/02 09:10:25;;;;;;;;;25.00;21.00;;;;;22.25;56.39;101521.66;5012640;28;45595;-75
2023/10/02 09:13:13;;;;;;;;;30.67;20.67;;;;;22.46;55.33;101525.38;5014634;28;45805;-76
2023/10/02 09:15:44;;;;;;;;;32.33;25.33;;;;;22.38;55.21;101489.16;5013174;28;45517;-70
2023/10/02 09:18:33;;;;;;;;;31.00;24.33;;;;;22.48;54.68;101496.84;5016813;28;45326;-77
2023/10/02 09:21:17;;;;;;;;;26.67;23.33;;;;;22.71;54.95;101520.03;5015973;28;46039;-76
2023/10/02 09:23:51;;;;;;;;;32.33;23.00;;;;;22.81;53.81;101511.63;5017560;28;45468;-75
2023/10/02 09:26:24;;;;;;;;;30.33;16.33;;;;;23.11;53.99;101524.78;5013675;28;45569;-80
2023/10/02 09:29:05;;;;;;;;;29.67;24.33;;;;;23.08;52.47;101499.06;5013454;28;46321;-72
2023/10/02 09:31:36;;;;;;;;;27.33;22.00;;;;;23.21;52.89;101512.84;5011803;28;45602;-78
2023/10/02 09:34:16;;;;;;;;;37.67;23.00;;;;;23.41;52.92;101535.25;5015793;28;45737;-82
2023/10/02 09:36:52;;;;;;;;;29.00;23.67;;;;;23.61;52.65;101531.78;5016176;28;45533;-74
2023/10/02 09:39:38;;;;;;;;;27.33;21.00;;;;;23.71;52.46;101512.63;5009274;28;45399;-80
2023/10/02 09:42:09;;;;;;;;;40.33;26.67;;;;;23.82;50.79;101495.31;5014784;28;45597;-81
2023/10/02 09:44:47;;;;;;;;;32.33;24.33;;;;;23.61;51.78;101489.88;5030866;28;45447;-78
2023/10/02 09:47:21;;;;;;;;;34.00;26.33;;;;;23.82;51.92;101514.03;5014989;28;45506;-75
2023/10/02 09:50:10;;;;;;;;;34.67;26.33;;;;;24.07;51.45;101519.25;5014379;28;45457;-76
2023/10/02 09:52:58;;;;;;;;;31.00;23.33;;;;;24.26;50.46;101487.22;5015530;28;46259;-77
2023/10/02 09:55:51;;;;;;;;;30.00;26.67;;;;;24.66;50.27;101491.72;5017396;28;45412;-82
2023/10/02 09:58:29;;;;;;;;;31.33;23.33;;;;;24.65;48.97;101451.59;5017725;28;45323;-83
2023/10/02 10:01:38;;;;;;;;;32.33;23.00;;;;;24.97;48.54;101491.16;5018455;28;45510;-78
2023/10/02 10:04:32;;;;;;;;;33.00;25.33;;;;;25.02;48.70;101450.75;5017050;28;45398;-80
2023/10/02 10:07:35;;;;;;;;;38.67;25.67;;;;;25.14;47.18;101460.03;5017606;28;45406;-81
2023/10/02 10:10:28;;;;;;;;;32.67;27.67;;;;;25.59;47.43;101491.81;5018626;28;45409;-80
2023/10/02 10:13:09;;;;;;;;;33.67;23.67;;;;;25.67;47.22;101445.84;5011084;28;46045;-81
2023/10/02 10:15:37;;;;;;;;;33.67;26.00;;;;;25.79;46.16;101474.75;5018190;28;45544;-82
2023/10/02 10:18:12;;;;;;;;;38.00;28.67;;;;;25.95;45.85;101465.97;5018374;28;45449;-82
2023/10/02 10:20:38;;;;;;;;;35.00;26.00;;;;;26.13;45.77;101448.03;5018029;28;45442;-77
2023/10/02 10:23:31;;;;;;;;;25.00;24.67;;;;;26.36;45.60;101438.75;5022890;28;45502;-81
2023/10/02 10:26:07;;;;;;;;;22.67;19.67;;;;;27.00;44.71;101470.25;5019650;28;46253;-79
2023/10/02 10:28:50;;;;;;;;;36.33;25.67;;;;;26.77;43.97;101409.69;5016656;28;45559;-78
2023/10/02 10:31:28;;;;;;;;;34.00;27.67;;;;;27.22;43.26;101453.81;5018255;28;45753;-78
2023/10/02 10:33:56;;;;;;;;;37.67;28.67;;;;;26.98;43.49;101399.56;5017339;28;45308;-78
2023/10/02 10:36:36;;;;;;;;;28.00;23.67;;;;;27.53;42.81;101453.88;5020140;28;45562;-79
2023/10/02 10:39:30;;;;;;;;;31.33;26.67;;;;;28.18;42.51;101446.44;5022931;28;45413;-77
2023/10/02 10:41:57;;;;;;;;;36.25;25.25;;;;;29.60;39.49;101400.56;5023646;28;45485;-78
2023/10/02 10:44:32;;;;;;;;;39.33;29.33;;;;;31.03;36.88;101399.50;5019843;28;45406;-79
2023/10/02 10:47:03;;;;;;;;;34.50;29.00;;;;;33.02;34.03;101438.38;5020461;28;46139;-76
2023/10/02 10:50:29;;;;;;;;;35.00;26.50;;;;;34.16;31.96;101421.56;5020306;28;45291;-80
2023/10/02 10:52:35;;;;;;;;;29.25;22.75;;;;;34.40;30.96;101416.66;5014661;28;45599;-80
2023/10/02 10:55:04;;;;;;;;;33.50;28.25;;;;;35.32;30.66;101426.63;5020168;28;45481;-79
2023/10/02 10:57:51;;;;;;;;;32.50;27.75;;;;;34.51;30.23;101338.72;5017929;28;46926;-78
2023/10/02 11:00:35;;;;;;;;;39.00;30.00;;;;;34.54;30.73;101401.84;5005041;28;45488;-77
2023/10/02 11:03:13;;;;;;;;;32.75;23.75;;;;;36.09;28.47;101397.59;5018086;28;45482;-80
2023/10/02 11:05:40;;;;;;;;;34.50;27.50;;;;;36.57;27.39;101380.25;5016246;28;45531;-79
2023/10/02 11:08:28;;;;;;;;;19.50;16.00;;;;;36.40;28.06;101392.81;5018842;28;46665;-75
2023/10/02 11:11:11;;;;;;;;;31.00;25.00;;;;;36.61;27.92;101370.75;5018882;28;45519;-75
2023/10/02 11:13:50;;;;;;;;;32.50;26.75;;;;;36.77;27.79;101402.84;5017734;28;45461;-77
2023/10/02 11:16:31;;;;;;;;;29.00;23.25;;;;;35.85;28.03;101388.03;5017737;28;45521;-76
2023/10/02 11:19:13;;;;;;;;;33.00;26.50;;;;;34.36;29.40;101347.25;5016495;28;45779;-79
2023/10/02 11:21:45;;;;;;;;;32.80;26.80;;;;;34.66;29.93;101383.59;5011160;28;45846;-81
2023/10/02 11:24:21;;;;;;;;;32.00;24.40;;;;;35.19;29.51;101379.72;5017908;28;45483;-79
2023/10/02 11:26:47;;;;;;;;;32.50;26.75;;;;;36.03;28.00;101343.69;5015938;28;45472;-75
2023/10/02 11:29:22;;;;;;;;;37.25;30.25;;;;;36.38;27.27;101369.41;5029210;28;47827;-73
2023/10/02 11:34:49;;;;;;;;;31.80;25.00;;;;;38.09;26.08;101347.59;5017056;28;45710;-78
2023/10/02 11:37:16;;;;;;;;;34.00;25.50;;;;;38.08;25.70;101363.13;5014957;28;45919;-70
2023/10/02 11:39:42;;;;;;;;;39.00;28.75;;;;;37.44;26.03;101361.59;5017035;28;46449;-77
2023/10/02 11:42:09;;;;;;;;;34.20;26.20;;;;;36.98;26.01;101375.28;5017593;28;45585;-77
2023/10/02 11:44:34;;;;;;;;;28.40;27.00;;;;;36.80;26.79;101367.06;5018266;28;45493;-72
2023/10/02 11:47:03;;;;;;;;;42.00;30.50;;;;;36.81;27.05;101359.75;5017360;28;45775;-78
2023/10/02 11:49:29;;;;;;;;;35.25;28.50;;;;;36.75;26.73;101380.31;5017619;28;45461;-77
2023/10/02 11:52:02;;;;;;;;;38.20;24.60;;;;;36.19;27.16;101337.59;5018073;28;45563;-79
2023/10/02 11:54:28;;;;;;;;;33.40;23.20;;;;;36.75;27.35;101366.66;5017626;28;45599;-78
2023/10/02 11:56:54;;;;;;;;;38.00;27.00;;;;;36.28;27.91;101358.53;5017522;28;45494;-79
2023/10/02 11:59:19;;;;;;;;;31.00;26.75;;;;;36.06;27.96;101344.22;5018166;28;45448;-78
2023/10/02 12:01:47;;;;;;;;;34.25;26.50;;;;;35.87;28.34;101336.97;5018497;28;45571;-76
2023/10/02 12:04:16;;;;;;;;;28.00;25.20;;;;;34.88;29.23;101338.97;5016914;28;45396;-76
2023/10/02 12:06:42;;;;;;;;;29.00;21.00;;;;;34.63;29.27;101335.78;5016927;28;45451;-77
2023/10/02 12:09:13;;;;;;;;;39.75;25.50;;;;;34.44;30.38;101345.72;5032594;28;45798;-78
2023/10/02 12:11:44;;;;;;;;;26.60;21.60;;;;;34.50;30.80;101320.66;5017209;28;45410;-79
2023/10/02 12:14:10;;;;;;;;;28.80;23.00;;;;;34.55;30.56;101343.75;5017571;28;45431;-76
2023/10/02 12:16:38;;;;;;;;;28.25;22.25;;;;;34.27;30.56;101339.06;5018704;28;45437;-78
2023/10/02 12:19:04;;;;;;;;;39.25;30.00;;;;;33.85;31.25;101329.09;5016480;28;45480;-77
2023/10/02 12:21:29;;;;;;;;;33.00;24.60;;;;;33.55;31.81;101305.41;5032584;28;45396;-79
2023/10/02 12:24:00;;;;;;;;;28.50;24.25;;;;;33.57;32.02;101336.06;5017494;28;45373;-81
2023/10/02 12:26:26;;;;;;;;;33.25;25.50;;;;;33.40;32.23;101315.75;5014735;28;45548;-78